Time;durP1;ratioP1;P1;durP2;ratioP2;P2;SDS_P1;SDS_P2;PMS_P1;PMS_P2;Temp;Humidity;BMP_temperature;BMP_pressure;BME280_temperature;BME280_humidity;BME280_pressure;Samples;Min_cycle;Max_cycle;Signal;HPM_P1;HPM_P2
2021/12/02 00:00:56;;;;;;;44.20;19.95;;;;;;;;;;5089776;28;20028;-71
2021/12/02 00:03:23;;;;;;;47.45;19.95;;;;;;;;;;5090414;28;20530;-71
2021/12/02 00:05:49;;;;;;;37.05;18.75;;;;;;;;;;5090039;28;20028;-71
2021/12/02 00:08:16;;;;;;;38.58;18.02;;;;;;;;;;5090501;28;20032;-71
2021/12/02 00:10:42;;;;;;;38.00;17.20;;;;;;;;;;5092544;28;20496;-70
2021/12/02 00:13:09;;;;;;;40.92;17.92;;;;;;;;;;5091306;28;20052;-71
2021/12/02 00:15:40;;;;;;;33.63;15.90;;;;;;;;;;5090182;28;20024;-70
2021/12/02 00:21:03;;;;;;;38.17;16.65;;;;;;;;;;5090066;28;20273;-71
2021/12/02 00:21:05;;;;;;;34.10;14.32;;;;;;;;;;5070431;28;20040;-71
2021/12/02 00:23:51;;;;;;;27.92;14.25;;;;;;;;;;5090041;28;20028;-71
2021/12/02 00:26:17;;;;;;;31.95;13.68;;;;;;;;;;5075468;28;20508;-71
2021/12/02 00:28:44;;;;;;;30.30;14.02;;;;;;;;;;5092160;28;20028;-71
2021/12/02 00:31:15;;;;;;;36.45;15.05;;;;;;;;;;5090217;28;20119;-71
2021/12/02 00:33:44;;;;;;;31.40;14.80;;;;;;;;;;5089484;28;20028;-71
2021/12/02 00:36:11;;;;;;;27.90;12.85;;;;;;;;;;5089581;28;20396;-70
2021/12/02 00:38:37;;;;;;;27.80;14.57;;;;;;;;;;5089642;28;20059;-70
2021/12/02 00:41:03;;;;;;;29.35;14.00;;;;;;;;;;5089649;28;20028;-71
2021/12/02 00:43:30;;;;;;;26.13;12.65;;;;;;;;;;5093260;28;20103;-70
2021/12/02 00:45:56;;;;;;;27.52;11.50;;;;;;;;;;5089409;28;20045;-70
2021/12/02 00:48:22;;;;;;;23.38;10.30;;;;;;;;;;5089173;28;20159;-69
2021/12/02 00:50:49;;;;;;;24.02;11.23;;;;;;;;;;5089565;28;20110;-70
2021/12/02 00:53:18;;;;;;;28.90;12.18;;;;;;;;;;5089547;28;20020;-70
2021/12/02 00:55:45;;;;;;;32.78;12.80;;;;;;;;;;5091540;28;20066;-70
2021/12/02 00:58:18;;;;;;;30.02;13.38;;;;;;;;;;5090542;28;20028;-70
2021/12/02 01:00:44;;;;;;;28.50;13.20;;;;;;;;;;5088390;28;20052;-70
2021/12/02 01:03:10;;;;;;;30.88;13.52;;;;;;;;;;5089669;28;20027;-70
2021/12/02 01:05:37;;;;;;;30.65;13.35;;;;;;;;;;5089120;28;20024;-70
2021/12/02 01:08:03;;;;;;;34.55;14.38;;;;;;;;;;5089494;28;20419;-70
2021/12/02 01:10:29;;;;;;;28.40;12.05;;;;;;;;;;5088072;28;20068;-70
2021/12/02 01:12:57;;;;;;;25.10;11.07;;;;;;;;;;5089349;28;20028;-70
2021/12/02 01:15:25;;;;;;;21.60;10.70;;;;;;;;;;5066545;28;20045;-70
2021/12/02 01:17:51;;;;;;;26.08;10.70;;;;;;;;;;5089226;28;20028;-70
2021/12/02 01:20:18;;;;;;;29.13;11.10;;;;;;;;;;5089064;28;20032;-70
2021/12/02 01:22:44;;;;;;;30.50;10.38;;;;;;;;;;5090160;28;20595;-70
2021/12/02 01:25:11;;;;;;;26.13;10.98;;;;;;;;;;5089803;28;20040;-70
2021/12/02 01:27:39;;;;;;;24.98;8.70;;;;;;;;;;5089112;28;20204;-70
2021/12/02 01:30:06;;;;;;;23.50;8.88;;;;;;;;;;5088062;28;20028;-70
2021/12/02 01:32:38;;;;;;;23.88;8.88;;;;;;;;;;5088907;28;20039;-70
2021/12/02 01:35:05;;;;;;;18.02;7.35;;;;;;;;;;5081960;28;20034;-71
2021/12/02 01:37:32;;;;;;;46.00;10.82;;;;;;;;;;5092542;28;20052;-70
2021/12/02 01:39:59;;;;;;;54.63;13.43;;;;;;;;;;5088675;28;20110;-70
2021/12/02 01:42:27;;;;;;;125.38;15.55;;;;;;;;;;5090062;28;20024;-70
2021/12/02 01:44:53;;;;;;;;;;;;;;;;;;5088876;28;20426;-70
2021/12/02 01:47:22;;;;;;;27.05;11.55;;;;;;;;;;5088319;28;19931;-70
2021/12/02 01:49:51;;;;;;;48.65;15.05;;;;;;;;;;5090599;28;20066;-70
2021/12/02 01:52:20;;;;;;;34.83;14.38;;;;;;;;;;5090551;28;20028;-70
2021/12/02 01:54:46;;;;;;;72.45;12.70;;;;;;;;;;5088377;28;20046;-70
2021/12/02 01:57:20;;;;;;;70.13;12.90;;;;;;;;;;5090011;28;20032;-70
2021/12/02 01:59:48;;;;;;;35.15;14.15;;;;;;;;;;5088831;28;20028;-70
2021/12/02 02:02:15;;;;;;;29.58;12.93;;;;;;;;;;5088456;28;20027;-70
2021/12/02 02:04:42;;;;;;;35.67;13.98;;;;;;;;;;5090652;28;20056;-70
2021/12/02 02:07:12;;;;;;;29.58;12.60;;;;;;;;;;5089314;28;20048;-70
2021/12/02 02:09:38;;;;;;;31.42;12.32;;;;;;;;;;5087677;28;20089;-70
2021/12/02 02:12:06;;;;;;;25.23;10.30;;;;;;;;;;5088307;28;20489;-70
2021/12/02 02:14:32;;;;;;;25.33;9.60;;;;;;;;;;5088368;28;20020;-70
2021/12/02 02:17:01;;;;;;;24.55;10.50;;;;;;;;;;5088792;28;20028;-70
2021/12/02 02:19:30;;;;;;;20.30;9.70;;;;;;;;;;5090266;28;20057;-70
2021/12/02 02:21:56;;;;;;;21.50;9.82;;;;;;;;;;5088211;28;20476;-70
2021/12/02 02:24:23;;;;;;;20.08;9.23;;;;;;;;;;5089443;28;20024;-70
2021/12/02 02:26:49;;;;;;;16.42;7.97;;;;;;;;;;5087701;28;20028;-70
2021/12/02 02:29:17;;;;;;;19.58;7.97;;;;;;;;;;5086621;28;20107;-70
2021/12/02 02:31:44;;;;;;;19.17;8.23;;;;;;;;;;5090137;28;20031;-70
2021/12/02 02:34:10;;;;;;;17.83;9.38;;;;;;;;;;5088907;28;20451;-70
2021/12/02 02:36:40;;;;;;;20.13;8.43;;;;;;;;;;5087789;28;20106;-70
2021/12/02 02:39:06;;;;;;;20.00;8.93;;;;;;;;;;5087664;28;20437;-70
2021/12/02 02:41:35;;;;;;;18.88;9.13;;;;;;;;;;5087867;28;20411;-70
2021/12/02 02:44:02;;;;;;;17.23;8.35;;;;;;;;;;5087984;28;20038;-70
2021/12/02 02:46:30;;;;;;;19.90;8.60;;;;;;;;;;5090787;28;20059;-69
2021/12/02 02:48:56;;;;;;;;;;;;;;;;;;5087998;28;20081;-69
2021/12/02 02:51:22;;;;;;;25.50;8.30;;;;;;;;;;5087526;28;19967;-70
2021/12/02 02:53:51;;;;;;;19.63;8.80;;;;;;;;;;5087716;28;20377;-70
2021/12/02 02:56:18;;;;;;;28.08;12.32;;;;;;;;;;5088114;28;20363;-70
2021/12/02 02:59:00;;;;;;;21.90;11.00;;;;;;;;;;5089375;28;20122;-70
2021/12/02 03:09:21;;;;;;;18.67;8.23;;;;;;;;;;5087097;28;20111;-70
2021/12/02 03:11:53;;;;;;;27.02;9.32;;;;;;;;;;5087524;28;20047;-70
2021/12/02 03:14:46;;;;;;;22.65;10.32;;;;;;;;;;5085971;28;20012;-70
2021/12/02 03:17:13;;;;;;;24.55;9.82;;;;;;;;;;5053019;28;20123;-70
2021/12/02 03:19:43;;;;;;;20.45;9.10;;;;;;;;;;5088883;28;20016;-70
2021/12/02 03:22:09;;;;;;;21.80;8.07;;;;;;;;;;5090258;28;20093;-70
2021/12/02 03:24:35;;;;;;;20.85;8.38;;;;;;;;;;5088121;28;20127;-70
2021/12/02 03:27:01;;;;;;;23.08;10.23;;;;;;;;;;5087371;28;20047;-71
2021/12/02 03:29:27;;;;;;;24.60;9.55;;;;;;;;;;5086268;28;20087;-70
2021/12/02 03:31:53;;;;;;;22.00;8.50;;;;;;;;;;5089201;28;20024;-70
2021/12/02 03:34:19;;;;;;;26.75;9.80;;;;;;;;;;5088796;28;20060;-70
2021/12/02 03:36:51;;;;;;;21.27;8.38;;;;;;;;;;5087226;28;20031;-69
2021/12/02 03:39:18;;;;;;;27.95;9.20;;;;;;;;;;5086981;28;20425;-69
2021/12/02 03:41:44;;;;;;;23.45;9.68;;;;;;;;;;5086537;28;20035;-69
2021/12/02 03:44:10;;;;;;;22.63;9.07;;;;;;;;;;5087066;28;20020;-69
2021/12/02 03:46:36;;;;;;;75.25;10.88;;;;;;;;;;5092287;28;20031;-70
2021/12/02 03:49:02;;;;;;;55.13;10.45;;;;;;;;;;5090703;28;20040;-69
2021/12/02 03:51:29;;;;;;;20.92;8.02;;;;;;;;;;5091036;28;20028;-69
2021/12/02 03:53:55;;;;;;;16.75;6.97;;;;;;;;;;5090354;28;20036;-69
2021/12/02 03:56:21;;;;;;;21.02;7.25;;;;;;;;;;5090749;28;20024;-69
2021/12/02 03:58:48;;;;;;;21.00;7.78;;;;;;;;;;5091643;28;20031;-69
2021/12/02 04:01:15;;;;;;;20.10;7.82;;;;;;;;;;5085724;28;20025;-70
2021/12/02 04:03:41;;;;;;;18.20;7.05;;;;;;;;;;5088147;28;20028;-70
2021/12/02 04:06:07;;;;;;;17.38;6.20;;;;;;;;;;5090241;28;20020;-69
2021/12/02 04:14:31;;;;;;;56.13;9.85;;;;;;;;;;5075168;28;20032;-68
2021/12/02 04:16:54;;;;;;;53.72;10.50;;;;;;;;;;5091157;28;20020;-69
2021/12/02 04:19:21;;;;;;;28.17;10.25;;;;;;;;;;5091782;28;20024;-68
2021/12/02 04:21:47;;;;;;;23.50;10.13;;;;;;;;;;5089776;28;20028;-68
2021/12/02 04:24:13;;;;;;;27.73;9.95;;;;;;;;;;5090315;28;20035;-68
2021/12/02 04:26:40;;;;;;;21.75;8.80;;;;;;;;;;5092162;28;20468;-68
2021/12/02 04:29:06;;;;;;;17.50;7.63;;;;;;;;;;5088340;28;20563;-68
2021/12/02 04:31:32;;;;;;;18.33;7.57;;;;;;;;;;5074890;28;20082;-68
2021/12/02 04:33:58;;;;;;;27.85;8.40;;;;;;;;;;5089936;28;20123;-68
2021/12/02 04:36:24;;;;;;;23.58;9.60;;;;;;;;;;5090118;28;20048;-66
2021/12/02 04:38:50;;;;;;;22.88;7.72;;;;;;;;;;5090496;28;20621;-69
2021/12/02 04:41:17;;;;;;;23.02;9.23;;;;;;;;;;5104042;28;20086;-68
2021/12/02 04:43:43;;;;;;;27.90;7.90;;;;;;;;;;5092040;28;20447;-68
2021/12/02 04:46:09;;;;;;;51.88;7.70;;;;;;;;;;5091085;28;20119;-68
2021/12/02 04:48:35;;;;;;;19.10;7.88;;;;;;;;;;5089428;28;20576;-68
2021/12/02 04:51:01;;;;;;;19.40;8.27;;;;;;;;;;5088831;28;20028;-68
2021/12/02 04:53:27;;;;;;;15.55;7.20;;;;;;;;;;5089190;28;20028;-69
2021/12/02 04:55:53;;;;;;;20.58;7.72;;;;;;;;;;5090896;28;20086;-68
2021/12/02 04:58:19;;;;;;;16.48;7.13;;;;;;;;;;5091506;28;20100;-68
2021/12/02 05:00:45;;;;;;;19.40;7.00;;;;;;;;;;5088522;28;20028;-68
2021/12/02 05:03:11;;;;;;;18.52;6.60;;;;;;;;;;5088823;28;20028;-68
2021/12/02 05:05:37;;;;;;;19.20;6.40;;;;;;;;;;5089452;28;20028;-68
2021/12/02 05:08:04;;;;;;;16.52;6.95;;;;;;;;;;5089781;28;20032;-68
2021/12/02 05:10:30;;;;;;;19.35;7.82;;;;;;;;;;5087706;28;20390;-68
2021/12/02 05:12:56;;;;;;;18.70;7.00;;;;;;;;;;5088478;28;20020;-70
2021/12/02 05:15:22;;;;;;;19.55;6.65;;;;;;;;;;5089180;28;20039;-69
2021/12/02 05:17:48;;;;;;;17.98;7.45;;;;;;;;;;5088967;28;20401;-68
2021/12/02 05:20:14;;;;;;;21.23;7.40;;;;;;;;;;5070705;28;20032;-68
2021/12/02 05:22:40;;;;;;;19.00;7.47;;;;;;;;;;5091516;28;20039;-68
2021/12/02 05:25:06;;;;;;;19.50;7.65;;;;;;;;;;5090351;28;20032;-69
2021/12/02 05:27:32;;;;;;;15.07;7.13;;;;;;;;;;5088532;28;20098;-69
2021/12/02 05:29:59;;;;;;;13.38;6.30;;;;;;;;;;5087591;28;20106;-69
2021/12/02 05:32:25;;;;;;;20.25;5.50;;;;;;;;;;5089197;28;20485;-69
2021/12/02 05:34:51;;;;;;;83.38;8.48;;;;;;;;;;5090379;28;20036;-68
2021/12/02 05:37:17;;;;;;;18.23;7.38;;;;;;;;;;5089716;28;20103;-69
2021/12/02 05:39:43;;;;;;;17.40;7.30;;;;;;;;;;5088197;28;20436;-69
2021/12/02 05:42:10;;;;;;;20.92;7.55;;;;;;;;;;5088446;28;20073;-69
2021/12/02 05:44:36;;;;;;;15.57;6.40;;;;;;;;;;5088161;28;20052;-69
2021/12/02 05:47:02;;;;;;;17.90;6.72;;;;;;;;;;5072849;28;20027;-69
2021/12/02 05:49:28;;;;;;;11.70;4.90;;;;;;;;;;5090979;28;20098;-69
2021/12/02 05:51:54;;;;;;;16.67;5.68;;;;;;;;;;5088141;28;20059;-69
2021/12/02 05:54:20;;;;;;;18.05;5.93;;;;;;;;;;5088050;28;20039;-69
2021/12/02 05:56:46;;;;;;;18.23;7.22;;;;;;;;;;5088081;28;20031;-68
2021/12/02 05:59:13;;;;;;;19.52;8.40;;;;;;;;;;5087446;28;20115;-69
2021/12/02 06:01:42;;;;;;;18.63;8.07;;;;;;;;;;5072478;28;20024;-69
2021/12/02 06:04:09;;;;;;;21.77;7.95;;;;;;;;;;5090781;28;20469;-70
2021/12/02 06:06:35;;;;;;;22.38;8.13;;;;;;;;;;5088291;28;20448;-65
2021/12/02 06:09:01;;;;;;;26.17;8.68;;;;;;;;;;5087189;28;20044;-64
2021/12/02 06:11:27;;;;;;;20.13;8.20;;;;;;;;;;5088147;28;20107;-64
2021/12/02 06:13:53;;;;;;;17.25;7.07;;;;;;;;;;5089020;28;20528;-64
2021/12/02 06:16:21;;;;;;;19.02;5.95;;;;;;;;;;5090157;28;20028;-64
2021/12/02 06:18:47;;;;;;;12.82;5.25;;;;;;;;;;5087516;28;20633;-64
2021/12/02 06:21:13;;;;;;;14.00;6.13;;;;;;;;;;5088033;28;20027;-64
2021/12/02 06:23:40;;;;;;;13.38;5.68;;;;;;;;;;5088012;28;20020;-64
2021/12/02 06:26:07;;;;;;;27.05;10.57;;;;;;;;;;5087888;28;20035;-64
2021/12/02 06:28:33;;;;;;;27.08;10.82;;;;;;;;;;5090836;28;20054;-64
2021/12/02 06:31:02;;;;;;;20.20;9.23;;;;;;;;;;5086799;28;20181;-64
2021/12/02 06:33:28;;;;;;;20.80;10.10;;;;;;;;;;5087190;28;20548;-64
2021/12/02 06:35:53;;;;;;;80.85;13.57;;;;;;;;;;5085127;28;20028;-65
2021/12/02 06:38:19;;;;;;;20.52;8.98;;;;;;;;;;5086662;28;20027;-65
2021/12/02 06:40:45;;;;;;;19.73;8.20;;;;;;;;;;5089900;28;20665;-64
2021/12/02 06:43:14;;;;;;;20.20;9.80;;;;;;;;;;5088719;28;20032;-65
2021/12/02 06:45:40;;;;;;;17.98;8.15;;;;;;;;;;5087666;28;20099;-68
2021/12/02 06:48:06;;;;;;;18.48;8.55;;;;;;;;;;5087161;28;20417;-68
2021/12/02 06:50:34;;;;;;;25.58;10.82;;;;;;;;;;5081675;28;20086;-67
2021/12/02 06:53:00;;;;;;;35.88;12.35;;;;;;;;;;5087503;28;20024;-68
2021/12/02 06:55:26;;;;;;;36.05;15.30;;;;;;;;;;5088554;28;20035;-67
2021/12/02 06:57:52;;;;;;;30.83;13.93;;;;;;;;;;5084444;28;20111;-68
2021/12/02 07:00:20;;;;;;;32.25;13.45;;;;;;;;;;5084941;28;20497;-68
2021/12/02 07:02:46;;;;;;;28.17;12.50;;;;;;;;;;5087556;28;20081;-68
2021/12/02 07:05:13;;;;;;;28.55;11.85;;;;;;;;;;5086075;28;20032;-70
2021/12/02 07:07:40;;;;;;;27.20;11.23;;;;;;;;;;5083223;28;20031;-70
2021/12/02 07:10:07;;;;;;;24.05;10.77;;;;;;;;;;5083978;28;20025;-70
2021/12/02 07:12:34;;;;;;;19.95;8.32;;;;;;;;;;5084516;28;20024;-69
2021/12/02 07:15:06;;;;;;;20.63;9.30;;;;;;;;;;5082489;28;20090;-69
2021/12/02 07:17:33;;;;;;;57.95;17.88;;;;;;;;;;5082864;28;20107;-69
2021/12/02 07:20:00;;;;;;;46.13;17.30;;;;;;;;;;5084177;28;20104;-69
2021/12/02 07:22:26;;;;;;;26.40;11.43;;;;;;;;;;5082631;28;20099;-69
2021/12/02 07:24:52;;;;;;;36.13;14.93;;;;;;;;;;5090344;28;20035;-69
2021/12/02 07:27:18;;;;;;;32.25;13.07;;;;;;;;;;5090745;28;20024;-69
2021/12/02 07:29:44;;;;;;;30.40;10.63;;;;;;;;;;5093185;28;20043;-69
2021/12/02 07:32:11;;;;;;;24.95;10.60;;;;;;;;;;5091302;28;20035;-69
2021/12/02 07:34:40;;;;;;;24.48;11.13;;;;;;;;;;5093639;28;20035;-69
2021/12/02 07:37:06;;;;;;;23.58;10.57;;;;;;;;;;5092881;28;20031;-69
2021/12/02 07:39:32;;;;;;;23.90;9.30;;;;;;;;;;5090616;28;20028;-69
2021/12/02 07:41:58;;;;;;;22.98;10.70;;;;;;;;;;5090889;28;20468;-69
2021/12/02 07:44:25;;;;;;;17.27;7.43;;;;;;;;;;5091098;28;20444;-69
2021/12/02 07:46:51;;;;;;;23.10;9.35;;;;;;;;;;5092833;28;20416;-69
2021/12/02 07:49:17;;;;;;;23.60;10.15;;;;;;;;;;5091986;28;20118;-69
2021/12/02 07:51:44;;;;;;;20.60;9.10;;;;;;;;;;5090139;28;20028;-70
2021/12/02 07:54:11;;;;;;;19.27;8.98;;;;;;;;;;5089463;28;20028;-69
2021/12/02 07:56:37;;;;;;;25.00;9.52;;;;;;;;;;5090653;28;20464;-72
2021/12/02 07:59:03;;;;;;;54.63;9.52;;;;;;;;;;5073614;28;20028;-71
2021/12/02 08:01:30;;;;;;;18.25;8.30;;;;;;;;;;5092992;28;20066;-71
2021/12/02 08:03:56;;;;;;;17.48;8.05;;;;;;;;;;5090410;28;20066;-72
2021/12/02 08:06:24;;;;;;;42.75;17.75;;;;;;;;;;5090081;28;20060;-71
2021/12/02 08:08:50;;;;;;;54.83;20.63;;;;;;;;;;5089368;28;20047;-71
2021/12/02 08:11:16;;;;;;;50.25;20.35;;;;;;;;;;5090111;28;20028;-71
2021/12/02 08:13:42;;;;;;;44.40;18.42;;;;;;;;;;5092151;28;20296;-72
2021/12/02 08:16:08;;;;;;;35.95;17.58;;;;;;;;;;5091405;28;20029;-72
2021/12/02 08:18:34;;;;;;;33.60;17.13;;;;;;;;;;5090151;28;20122;-72
2021/12/02 08:21:00;;;;;;;35.10;17.15;;;;;;;;;;5089584;28;20020;-70
2021/12/02 08:23:27;;;;;;;28.92;14.95;;;;;;;;;;5088935;28;20032;-73
2021/12/02 08:25:54;;;;;;;19.45;10.57;;;;;;;;;;5091451;28;20525;-72
2021/12/02 08:28:20;;;;;;;21.38;11.02;;;;;;;;;;5091783;28;20028;-72
2021/12/02 08:30:47;;;;;;;17.95;8.52;;;;;;;;;;5088581;28;20046;-73
2021/12/02 08:33:14;;;;;;;18.13;9.00;;;;;;;;;;5089188;28;20059;-72
2021/12/02 08:35:40;;;;;;;20.38;10.18;;;;;;;;;;5089867;28;20053;-73
2021/12/02 08:38:11;;;;;;;18.77;10.20;;;;;;;;;;5089611;28;20045;-73
2021/12/02 08:40:39;;;;;;;23.80;10.95;;;;;;;;;;5092177;28;20020;-72
2021/12/02 08:43:06;;;;;;;22.08;11.50;;;;;;;;;;5090177;28;20062;-72
2021/12/02 08:45:33;;;;;;;20.00;10.50;;;;;;;;;;5089343;28;20022;-73
2021/12/02 08:48:00;;;;;;;22.75;12.02;;;;;;;;;;5089080;28;20444;-72
2021/12/02 08:50:26;;;;;;;19.70;10.30;;;;;;;;;;5088879;28;20056;-72
2021/12/02 08:52:53;;;;;;;19.33;10.48;;;;;;;;;;5090473;28;20028;-72
2021/12/02 08:55:20;;;;;;;20.33;10.68;;;;;;;;;;5090171;28;20429;-73
2021/12/02 08:57:47;;;;;;;15.60;7.55;;;;;;;;;;5088587;28;20095;-72
2021/12/02 09:00:14;;;;;;;12.27;6.63;;;;;;;;;;5088101;28;20498;-72
2021/12/02 09:02:40;;;;;;;13.93;5.00;;;;;;;;;;5088735;28;20373;-72
2021/12/02 09:05:07;;;;;;;12.68;4.07;;;;;;;;;;5088828;28;20058;-72
2021/12/02 09:07:33;;;;;;;10.13;4.68;;;;;;;;;;5092451;28;20028;-73
2021/12/02 09:09:59;;;;;;;9.82;4.78;;;;;;;;;;5089225;28;20126;-72
2021/12/02 09:12:25;;;;;;;10.98;4.95;;;;;;;;;;5088994;28;20098;-72
2021/12/02 09:14:51;;;;;;;12.57;4.95;;;;;;;;;;5088770;28;20028;-73
2021/12/02 09:17:18;;;;;;;8.82;4.32;;;;;;;;;;5088485;28;20074;-68
2021/12/02 09:19:44;;;;;;;10.73;5.03;;;;;;;;;;5091052;28;20024;-68
2021/12/02 09:22:10;;;;;;;10.55;4.90;;;;;;;;;;5090306;28;20030;-68
2021/12/02 09:24:36;;;;;;;10.93;5.32;;;;;;;;;;5088312;28;20054;-67
2021/12/02 09:27:03;;;;;;;11.23;5.93;;;;;;;;;;5087753;28;20279;-68
2021/12/02 09:29:29;;;;;;;12.18;5.65;;;;;;;;;;5086391;28;20036;-68
2021/12/02 09:31:55;;;;;;;7.40;3.47;;;;;;;;;;5089208;28;20511;-68
2021/12/02 09:34:22;;;;;;;10.35;4.50;;;;;;;;;;5090057;28;20035;-68
2021/12/02 09:36:48;;;;;;;11.68;4.88;;;;;;;;;;5087169;28;20096;-68
2021/12/02 09:39:15;;;;;;;12.60;5.07;;;;;;;;;;5087310;28;20456;-68
2021/12/02 09:41:41;;;;;;;8.85;4.57;;;;;;;;;;5087482;28;20032;-68
2021/12/02 09:44:07;;;;;;;8.77;4.55;;;;;;;;;;5085516;28;20420;-68
2021/12/02 09:46:34;;;;;;;10.88;5.35;;;;;;;;;;5090504;28;20112;-68
2021/12/02 09:49:03;;;;;;;9.88;4.32;;;;;;;;;;5088674;28;20056;-68
2021/12/02 09:51:39;;;;;;;7.95;3.95;;;;;;;;;;5088354;28;20035;-68
2021/12/02 09:54:09;;;;;;;7.22;3.70;;;;;;;;;;5087678;28;20032;-68
2021/12/02 09:56:37;;;;;;;6.43;2.80;;;;;;;;;;5087243;28;20020;-68
2021/12/02 09:59:12;;;;;;;;;;;;;;;;;;5071912;28;20063;-68
2021/12/02 10:01:46;;;;;;;5.10;2.30;;;;;;;;;;5087702;28;19978;-68
2021/12/02 10:04:13;;;;;;;3.10;1.45;;;;;;;;;;5090892;28;20023;-68
2021/12/02 10:06:41;;;;;;;4.70;2.00;;;;;;;;;;5087719;28;20036;-67
2021/12/02 10:09:13;;;;;;;3.88;1.75;;;;;;;;;;5087863;28;20032;-68
2021/12/02 10:11:50;;;;;;;3.90;1.63;;;;;;;;;;5088017;28;20012;-68
2021/12/02 10:14:26;;;;;;;5.10;2.17;;;;;;;;;;5087860;28;20025;-68
2021/12/02 10:17:06;;;;;;;3.92;1.63;;;;;;;;;;5089391;28;20280;-68
2021/12/02 10:19:32;;;;;;;4.65;1.55;;;;;;;;;;5086919;28;20027;-68
2021/12/02 10:22:08;;;;;;;6.07;2.17;;;;;;;;;;5087866;28;20053;-68
2021/12/02 10:24:40;;;;;;;3.00;1.48;;;;;;;;;;5087159;28;20036;-68
2021/12/02 10:27:06;;;;;;;3.40;1.63;;;;;;;;;;5065195;28;20035;-68
2021/12/02 10:29:36;;;;;;;4.00;1.77;;;;;;;;;;5086380;28;20032;-68
2021/12/02 10:32:16;;;;;;;3.70;1.80;;;;;;;;;;5072073;28;20094;-68
2021/12/02 10:34:54;;;;;;;3.85;1.77;;;;;;;;;;5086790;28;20023;-68
2021/12/02 10:37:21;;;;;;;2.05;1.30;;;;;;;;;;5089766;28;20028;-68
2021/12/02 10:39:58;;;;;;;3.10;1.17;;;;;;;;;;5087573;28;20136;-68
2021/12/02 10:42:24;;;;;;;3.83;1.80;;;;;;;;;;5087299;28;20024;-67
2021/12/02 10:44:54;;;;;;;5.53;2.00;;;;;;;;;;5087053;28;20024;-67
2021/12/02 10:47:22;;;;;;;6.93;2.55;;;;;;;;;;5086923;28;20017;-68
2021/12/02 10:49:50;;;;;;;7.88;4.68;;;;;;;;;;5089845;28;20135;-67
2021/12/02 10:52:17;;;;;;;4.30;2.38;;;;;;;;;;5088899;28;20016;-68
2021/12/02 10:54:46;;;;;;;4.30;1.50;;;;;;;;;;5087455;28;20455;-68
2021/12/02 10:57:14;;;;;;;2.85;1.20;;;;;;;;;;5092001;28;20487;-68
2021/12/02 10:59:50;;;;;;;1.27;0.80;;;;;;;;;;5090097;28;20016;-67
2021/12/02 11:02:19;;;;;;;1.85;0.85;;;;;;;;;;5091457;28;20024;-67
2021/12/02 11:04:46;;;;;;;2.65;0.90;;;;;;;;;;5090579;28;20025;-67
2021/12/02 11:07:24;;;;;;;1.38;0.70;;;;;;;;;;5093924;28;20088;-68
2021/12/02 11:09:52;;;;;;;1.17;0.50;;;;;;;;;;5089590;28;20035;-68
2021/12/02 11:12:20;;;;;;;1.42;0.50;;;;;;;;;;5089398;28;20023;-67
2021/12/02 11:15:04;;;;;;;1.10;0.63;;;;;;;;;;5089592;28;20056;-68
2021/12/02 11:17:32;;;;;;;1.27;0.70;;;;;;;;;;5088395;28;20039;-68
2021/12/02 11:19:59;;;;;;;1.45;0.60;;;;;;;;;;5090724;28;20024;-67
2021/12/02 11:22:27;;;;;;;0.52;0.40;;;;;;;;;;5093540;28;20031;-68
2021/12/02 11:24:53;;;;;;;2.25;0.70;;;;;;;;;;5067451;28;20099;-68
2021/12/02 11:27:22;;;;;;;1.52;0.50;;;;;;;;;;5079311;28;20085;-67
2021/12/02 11:30:03;;;;;;;2.10;0.60;;;;;;;;;;5088232;28;20119;-67
2021/12/02 11:32:35;;;;;;;3.78;1.20;;;;;;;;;;5091095;28;20024;-67
2021/12/02 11:35:03;;;;;;;1.92;0.90;;;;;;;;;;5090597;28;20095;-67
2021/12/02 11:37:29;;;;;;;1.52;0.70;;;;;;;;;;5093882;28;20032;-68
2021/12/02 11:39:55;;;;;;;1.05;0.73;;;;;;;;;;5089146;28;20024;-67
2021/12/02 11:42:22;;;;;;;0.90;0.57;;;;;;;;;;5088378;28;20587;-67
2021/12/02 11:44:49;;;;;;;1.00;0.60;;;;;;;;;;5089072;28;20021;-67
2021/12/02 11:47:15;;;;;;;3.63;0.70;;;;;;;;;;5089160;28;20058;-67
2021/12/02 11:49:41;;;;;;;2.17;0.77;;;;;;;;;;5091717;28;20051;-68
2021/12/02 11:52:08;;;;;;;1.40;0.60;;;;;;;;;;5071704;28;20724;-67
2021/12/02 11:54:34;;;;;;;1.60;0.65;;;;;;;;;;5086687;28;20012;-67
2021/12/02 11:57:00;;;;;;;0.80;0.50;;;;;;;;;;5078709;28;20031;-67
2021/12/02 11:59:27;;;;;;;0.80;0.52;;;;;;;;;;5069328;28;20031;-67
2021/12/02 12:01:56;;;;;;;1.17;0.60;;;;;;;;;;5088499;28;20228;-67
2021/12/02 12:04:22;;;;;;;1.77;0.75;;;;;;;;;;5090163;28;20032;-67
2021/12/02 12:06:53;;;;;;;2.08;0.70;;;;;;;;;;5086821;28;20049;-68
2021/12/02 12:09:21;;;;;;;2.92;0.50;;;;;;;;;;5088788;28;20136;-67
2021/12/02 12:11:49;;;;;;;0.70;0.47;;;;;;;;;;5088863;28;20016;-67
2021/12/02 12:14:19;;;;;;;2.22;0.50;;;;;;;;;;5088902;28;20035;-67
2021/12/02 12:16:47;;;;;;;1.15;0.60;;;;;;;;;;5073852;28;20433;-67
2021/12/02 12:19:20;;;;;;;0.85;0.55;;;;;;;;;;5086155;28;20028;-67
2021/12/02 12:21:56;;;;;;;1.35;0.70;;;;;;;;;;5086343;28;20028;-67
2021/12/02 12:24:39;;;;;;;1.05;0.70;;;;;;;;;;5085445;28;20024;-67
2021/12/02 12:27:25;;;;;;;1.88;1.00;;;;;;;;;;5084434;28;20028;-67
2021/12/02 12:30:08;;;;;;;1.38;0.80;;;;;;;;;;5071540;28;20052;-67
2021/12/02 12:35:17;;;;;;;5.03;0.80;;;;;;;;;;5083839;28;20040;-67
2021/12/02 12:40:15;;;;;;;1.42;0.73;;;;;;;;;;5085356;28;20029;-67
2021/12/02 12:42:50;;;;;;;3.25;1.40;;;;;;;;;;5085072;28;20035;-67
2021/12/02 12:45:46;;;;;;;6.57;2.95;;;;;;;;;;5085153;28;20064;-67
2021/12/02 12:48:25;;;;;;;4.32;1.55;;;;;;;;;;5066927;28;20384;-67
2021/12/02 12:50:51;;;;;;;6.05;2.38;;;;;;;;;;5089244;28;20055;-67
2021/12/02 12:53:18;;;;;;;4.30;1.55;;;;;;;;;;5074430;28;20057;-68
2021/12/02 12:56:01;;;;;;;7.55;1.95;;;;;;;;;;5080393;28;20013;-67
2021/12/02 12:58:30;;;;;;;7.43;3.30;;;;;;;;;;5091866;28;20035;-67
2021/12/02 13:00:56;;;;;;;6.03;2.15;;;;;;;;;;5087849;28;20067;-67
2021/12/02 13:03:30;;;;;;;8.65;2.53;;;;;;;;;;5089088;28;20044;-68
2021/12/02 13:06:01;;;;;;;4.93;1.85;;;;;;;;;;5083663;28;20443;-67
2021/12/02 13:08:37;;;;;;;1.38;0.90;;;;;;;;;;5082010;28;20024;-67
2021/12/02 13:11:04;;;;;;;3.40;1.10;;;;;;;;;;5081854;28;20067;-68
2021/12/02 13:13:32;;;;;;;2.17;1.17;;;;;;;;;;5085194;28;20048;-68
2021/12/02 13:16:16;;;;;;;4.57;1.40;;;;;;;;;;5086026;28;20032;-67
2021/12/02 13:18:43;;;;;;;4.72;1.80;;;;;;;;;;5083795;28;20024;-67
2021/12/02 13:21:21;;;;;;;5.10;2.28;;;;;;;;;;5082930;28;20115;-69
2021/12/02 13:23:54;;;;;;;6.33;2.13;;;;;;;;;;5086029;28;20022;-68
2021/12/02 13:26:22;;;;;;;3.28;1.77;;;;;;;;;;5080482;28;20032;-69
2021/12/02 13:28:49;;;;;;;5.00;2.17;;;;;;;;;;5089557;28;20020;-69
2021/12/02 13:31:16;;;;;;;4.78;2.50;;;;;;;;;;5085451;28;20016;-68
2021/12/02 13:33:49;;;;;;;5.60;2.42;;;;;;;;;;5086522;28;20028;-69
2021/12/02 13:36:16;;;;;;;8.35;3.50;;;;;;;;;;5088667;28;20028;-69
2021/12/02 13:38:44;;;;;;;7.90;3.15;;;;;;;;;;5088437;28;20150;-69
2021/12/02 13:41:19;;;;;;;6.90;2.53;;;;;;;;;;5089757;28;20075;-69
2021/12/02 13:43:53;;;;;;;6.63;2.10;;;;;;;;;;5088350;28;20016;-69
2021/12/02 13:46:27;;;;;;;4.50;2.22;;;;;;;;;;5090870;28;21088;-69
2021/12/02 13:48:54;;;;;;;6.35;2.67;;;;;;;;;;5087702;28;20500;-69
2021/12/02 13:54:19;;;;;;;4.85;2.55;;;;;;;;;;5088228;28;20041;-70
2021/12/02 13:56:45;;;;;;;8.70;3.10;;;;;;;;;;5086584;28;20547;-69
2021/12/02 13:59:16;;;;;;;8.18;3.55;;;;;;;;;;5087596;28;20468;-69
2021/12/02 14:01:54;;;;;;;10.13;5.47;;;;;;;;;;5090595;28;20043;-69
2021/12/02 14:04:20;;;;;;;;;;;;;;;;;;5090595;28;20024;-69
2021/12/02 14:06:46;;;;;;;144.90;29.05;;;;;;;;;;5089000;28;19908;-69
2021/12/02 14:09:17;;;;;;;38.67;11.35;;;;;;;;;;5088607;28;20424;-69
2021/12/02 14:11:43;;;;;;;20.95;6.85;;;;;;;;;;5088807;28;20032;-69
2021/12/02 14:14:15;;;;;;;16.60;7.40;;;;;;;;;;5088834;28;20473;-69
2021/12/02 14:16:42;;;;;;;16.63;7.90;;;;;;;;;;5090541;28;20027;-69
2021/12/02 14:19:09;;;;;;;16.52;7.05;;;;;;;;;;5089370;28;20028;-69
2021/12/02 14:21:35;;;;;;;11.60;5.97;;;;;;;;;;5088038;28;20111;-69
2021/12/02 14:24:01;;;;;;;14.18;5.97;;;;;;;;;;5088672;28;20542;-69
2021/12/02 14:26:29;;;;;;;11.65;5.75;;;;;;;;;;5088954;28;20134;-69
2021/12/02 14:28:56;;;;;;;11.60;5.43;;;;;;;;;;5085282;28;20430;-69
2021/12/02 14:31:25;;;;;;;11.40;6.05;;;;;;;;;;5084436;28;20083;-69
2021/12/02 14:33:53;;;;;;;15.48;7.82;;;;;;;;;;5082092;28;20081;-69
2021/12/02 14:36:23;;;;;;;13.00;7.63;;;;;;;;;;5083447;28;20021;-69
2021/12/02 14:38:50;;;;;;;12.15;6.15;;;;;;;;;;5085939;28;20622;-69
2021/12/02 14:41:16;;;;;;;14.00;6.68;;;;;;;;;;5073007;28;20095;-69
2021/12/02 14:43:49;;;;;;;14.73;6.03;;;;;;;;;;5089485;28;20032;-69
2021/12/02 14:46:37;;;;;;;13.60;6.47;;;;;;;;;;5088588;28;20036;-69
2021/12/02 14:49:05;;;;;;;24.42;11.98;;;;;;;;;;5085710;28;20544;-68
2021/12/02 14:51:52;;;;;;;24.27;12.02;;;;;;;;;;5082927;28;20075;-68
2021/12/02 14:54:36;;;;;;;15.55;8.52;;;;;;;;;;5087208;28;20026;-68
2021/12/02 14:57:07;;;;;;;20.88;8.80;;;;;;;;;;5087559;28;20081;-68
2021/12/02 14:59:34;;;;;;;18.48;9.63;;;;;;;;;;5082591;28;20556;-67